sensor_id;sensor_type;location;lat;lon;timestamp;temperature;humidity
72772;SHT30;60894;42.544;1.516;2022-10-16T00:00:55;11.64;72.60
72772;SHT30;60894;42.544;1.516;2022-10-16T00:03:22;11.64;72.73
72772;SHT30;60894;42.544;1.516;2022-10-16T00:05:49;11.64;72.85
72772;SHT30;60894;42.544;1.516;2022-10-16T00:08:16;11.54;73.28
72772;SHT30;60894;42.544;1.516;2022-10-16T00:10:44;11.61;72.99
72772;SHT30;60894;42.544;1.516;2022-10-16T00:13:11;11.60;73.08
72772;SHT30;60894;42.544;1.516;2022-10-16T00:15:38;11.57;73.19
72772;SHT30;60894;42.544;1.516;2022-10-16T00:18:05;11.57;73.06
72772;SHT30;60894;42.544;1.516;2022-10-16T00:20:34;11.55;73.18
72772;SHT30;60894;42.544;1.516;2022-10-16T00:23:02;11.65;73.13
72772;SHT30;60894;42.544;1.516;2022-10-16T00:25:29;11.73;73.02
72772;SHT30;60894;42.544;1.516;2022-10-16T00:27:59;11.63;73.21
72772;SHT30;60894;42.544;1.516;2022-10-16T00:30:26;11.58;73.34
72772;SHT30;60894;42.544;1.516;2022-10-16T00:32:54;11.73;72.67
72772;SHT30;60894;42.544;1.516;2022-10-16T00:35:21;11.65;72.90
72772;SHT30;60894;42.544;1.516;2022-10-16T00:37:48;11.48;73.84
72772;SHT30;60894;42.544;1.516;2022-10-16T00:40:15;11.38;73.96
72772;SHT30;60894;42.544;1.516;2022-10-16T00:42:42;11.50;73.80
72772;SHT30;60894;42.544;1.516;2022-10-16T00:45:11;11.54;73.46
72772;SHT30;60894;42.544;1.516;2022-10-16T00:47:40;11.51;73.56
72772;SHT30;60894;42.544;1.516;2022-10-16T00:50:09;11.55;73.22
72772;SHT30;60894;42.544;1.516;2022-10-16T00:52:41;11.58;73.03
72772;SHT30;60894;42.544;1.516;2022-10-16T00:55:09;11.55;73.43
72772;SHT30;60894;42.544;1.516;2022-10-16T00:57:37;11.51;73.35
72772;SHT30;60894;42.544;1.516;2022-10-16T01:00:08;11.55;73.29
72772;SHT30;60894;42.544;1.516;2022-10-16T01:02:36;11.60;73.03
72772;SHT30;60894;42.544;1.516;2022-10-16T01:05:04;11.63;72.69
72772;SHT30;60894;42.544;1.516;2022-10-16T01:07:41;11.74;72.70
72772;SHT30;60894;42.544;1.516;2022-10-16T01:10:18;11.68;72.66
72772;SHT30;60894;42.544;1.516;2022-10-16T01:12:51;11.58;72.84
72772;SHT30;60894;42.544;1.516;2022-10-16T01:15:26;11.55;73.16
72772;SHT30;60894;42.544;1.516;2022-10-16T01:18:00;11.48;73.18
72772;SHT30;60894;42.544;1.516;2022-10-16T01:20:33;11.43;73.56
72772;SHT30;60894;42.544;1.516;2022-10-16T01:23:14;11.33;73.98
72772;SHT30;60894;42.544;1.516;2022-10-16T01:26:08;11.24;73.83
72772;SHT30;60894;42.544;1.516;2022-10-16T01:28:42;11.35;73.47
72772;SHT30;60894;42.544;1.516;2022-10-16T01:31:14;11.31;73.98
72772;SHT30;60894;42.544;1.516;2022-10-16T01:33:44;11.27;74.33
72772;SHT30;60894;42.544;1.516;2022-10-16T01:36:15;11.28;74.31
72772;SHT30;60894;42.544;1.516;2022-10-16T01:38:44;11.37;74.07
72772;SHT30;60894;42.544;1.516;2022-10-16T01:41:17;11.23;74.49
72772;SHT30;60894;42.544;1.516;2022-10-16T01:43:49;11.20;74.51
72772;SHT30;60894;42.544;1.516;2022-10-16T01:46:20;11.13;74.84
72772;SHT30;60894;42.544;1.516;2022-10-16T01:48:48;11.12;74.79
72772;SHT30;60894;42.544;1.516;2022-10-16T01:51:17;11.13;74.45
72772;SHT30;60894;42.544;1.516;2022-10-16T01:53:49;11.26;74.49
72772;SHT30;60894;42.544;1.516;2022-10-16T01:56:17;11.23;74.61
72772;SHT30;60894;42.544;1.516;2022-10-16T01:58:50;11.10;74.57
72772;SHT30;60894;42.544;1.516;2022-10-16T02:01:19;11.06;74.95
72772;SHT30;60894;42.544;1.516;2022-10-16T02:03:49;11.07;75.07
72772;SHT30;60894;42.544;1.516;2022-10-16T02:06:18;11.06;75.03
72772;SHT30;60894;42.544;1.516;2022-10-16T02:08:46;11.07;74.82
72772;SHT30;60894;42.544;1.516;2022-10-16T02:11:13;11.16;74.54
72772;SHT30;60894;42.544;1.516;2022-10-16T02:13:42;11.10;74.55
72772;SHT30;60894;42.544;1.516;2022-10-16T02:16:13;10.95;75.25
72772;SHT30;60894;42.544;1.516;2022-10-16T02:18:41;10.88;75.37
72772;SHT30;60894;42.544;1.516;2022-10-16T02:21:13;10.77;75.57
72772;SHT30;60894;42.544;1.516;2022-10-16T02:23:48;10.82;75.70
72772;SHT30;60894;42.544;1.516;2022-10-16T02:26:23;10.88;75.58
72772;SHT30;60894;42.544;1.516;2022-10-16T02:28:55;10.68;76.26
72772;SHT30;60894;42.544;1.516;2022-10-16T02:31:27;10.69;76.24
72772;SHT30;60894;42.544;1.516;2022-10-16T02:33:58;10.73;75.79
72772;SHT30;60894;42.544;1.516;2022-10-16T02:36:26;10.72;75.49
72772;SHT30;60894;42.544;1.516;2022-10-16T02:38:53;10.96;75.26
72772;SHT30;60894;42.544;1.516;2022-10-16T02:41:21;10.95;75.45
72772;SHT30;60894;42.544;1.516;2022-10-16T02:43:48;10.83;74.96
72772;SHT30;60894;42.544;1.516;2022-10-16T02:46:16;10.80;75.16
72772;SHT30;60894;42.544;1.516;2022-10-16T02:48:45;10.69;75.81
72772;SHT30;60894;42.544;1.516;2022-10-16T02:51:12;10.68;76.13
72772;SHT30;60894;42.544;1.516;2022-10-16T02:53:39;10.65;76.02
72772;SHT30;60894;42.544;1.516;2022-10-16T02:56:06;10.69;75.87
72772;SHT30;60894;42.544;1.516;2022-10-16T02:58:33;10.56;76.13
72772;SHT30;60894;42.544;1.516;2022-10-16T03:01:00;10.61;76.28
72772;SHT30;60894;42.544;1.516;2022-10-16T03:03:27;10.59;76.47
72772;SHT30;60894;42.544;1.516;2022-10-16T03:05:55;10.68;75.97
72772;SHT30;60894;42.544;1.516;2022-10-16T03:08:22;10.69;75.64
72772;SHT30;60894;42.544;1.516;2022-10-16T03:10:51;10.66;76.17
72772;SHT30;60894;42.544;1.516;2022-10-16T03:13:18;10.58;76.17
72772;SHT30;60894;42.544;1.516;2022-10-16T03:15:45;10.56;75.70
72772;SHT30;60894;42.544;1.516;2022-10-16T03:18:12;10.55;76.35
72772;SHT30;60894;42.544;1.516;2022-10-16T03:20:39;10.54;76.08
72772;SHT30;60894;42.544;1.516;2022-10-16T03:23:08;10.42;76.57
72772;SHT30;60894;42.544;1.516;2022-10-16T03:25:35;10.42;76.53
72772;SHT30;60894;42.544;1.516;2022-10-16T03:28:02;10.44;76.57
72772;SHT30;60894;42.544;1.516;2022-10-16T03:30:29;10.49;76.57
72772;SHT30;60894;42.544;1.516;2022-10-16T03:32:56;10.44;77.04
72772;SHT30;60894;42.544;1.516;2022-10-16T03:35:24;10.44;76.80
72772;SHT30;60894;42.544;1.516;2022-10-16T03:37:51;10.46;76.33
72772;SHT30;60894;42.544;1.516;2022-10-16T03:40:19;10.63;76.56
72772;SHT30;60894;42.544;1.516;2022-10-16T03:42:46;10.52;76.43
72772;SHT30;60894;42.544;1.516;2022-10-16T03:45:13;10.49;76.63
72772;SHT30;60894;42.544;1.516;2022-10-16T03:47:40;10.45;76.69
72772;SHT30;60894;42.544;1.516;2022-10-16T03:50:08;10.38;76.55
72772;SHT30;60894;42.544;1.516;2022-10-16T03:52:35;10.45;76.44
72772;SHT30;60894;42.544;1.516;2022-10-16T03:55:02;10.49;75.83
72772;SHT30;60894;42.544;1.516;2022-10-16T03:57:30;10.44;76.14
72772;SHT30;60894;42.544;1.516;2022-10-16T03:59:57;10.41;76.28
72772;SHT30;60894;42.544;1.516;2022-10-16T04:02:24;10.40;76.53
72772;SHT30;60894;42.544;1.516;2022-10-16T04:04:51;10.32;76.62
72772;SHT30;60894;42.544;1.516;2022-10-16T04:07:18;10.30;76.97
72772;SHT30;60894;42.544;1.516;2022-10-16T04:09:45;10.38;76.61
72772;SHT30;60894;42.544;1.516;2022-10-16T04:12:12;10.27;76.91
72772;SHT30;60894;42.544;1.516;2022-10-16T04:14:40;10.37;76.21
72772;SHT30;60894;42.544;1.516;2022-10-16T04:17:07;10.27;76.91
72772;SHT30;60894;42.544;1.516;2022-10-16T04:19:34;10.27;76.57
72772;SHT30;60894;42.544;1.516;2022-10-16T04:22:01;10.25;76.77
72772;SHT30;60894;42.544;1.516;2022-10-16T04:24:28;10.25;77.20
72772;SHT30;60894;42.544;1.516;2022-10-16T04:26:55;10.30;77.41
72772;SHT30;60894;42.544;1.516;2022-10-16T04:29:22;10.35;77.22
72772;SHT30;60894;42.544;1.516;2022-10-16T04:31:50;10.25;77.24
72772;SHT30;60894;42.544;1.516;2022-10-16T04:34:17;10.18;77.30
72772;SHT30;60894;42.544;1.516;2022-10-16T04:36:47;10.28;77.06
72772;SHT30;60894;42.544;1.516;2022-10-16T04:39:13;10.30;76.90
72772;SHT30;60894;42.544;1.516;2022-10-16T04:41:41;10.31;76.82
72772;SHT30;60894;42.544;1.516;2022-10-16T04:44:07;10.20;76.97
72772;SHT30;60894;42.544;1.516;2022-10-16T04:46:34;10.22;77.35
72772;SHT30;60894;42.544;1.516;2022-10-16T04:49:03;10.22;77.53
72772;SHT30;60894;42.544;1.516;2022-10-16T04:51:29;10.20;77.36
72772;SHT30;60894;42.544;1.516;2022-10-16T04:53:56;10.30;77.94
72772;SHT30;60894;42.544;1.516;2022-10-16T04:56:23;10.22;77.24
72772;SHT30;60894;42.544;1.516;2022-10-16T04:58:50;10.10;77.90
72772;SHT30;60894;42.544;1.516;2022-10-16T05:01:17;10.08;77.90
72772;SHT30;60894;42.544;1.516;2022-10-16T05:03:44;10.20;77.98
72772;SHT30;60894;42.544;1.516;2022-10-16T05:06:12;10.05;78.47
72772;SHT30;60894;42.544;1.516;2022-10-16T05:08:39;10.01;78.79
72772;SHT30;60894;42.544;1.516;2022-10-16T05:11:06;10.07;78.68
72772;SHT30;60894;42.544;1.516;2022-10-16T05:13:33;10.13;78.78
72772;SHT30;60894;42.544;1.516;2022-10-16T05:16:00;10.14;78.49
72772;SHT30;60894;42.544;1.516;2022-10-16T05:18:27;10.14;78.15
72772;SHT30;60894;42.544;1.516;2022-10-16T05:20:54;10.14;77.89
72772;SHT30;60894;42.544;1.516;2022-10-16T05:23:22;10.18;77.92
72772;SHT30;60894;42.544;1.516;2022-10-16T05:25:53;10.17;77.73
72772;SHT30;60894;42.544;1.516;2022-10-16T05:28:21;10.30;78.10
72772;SHT30;60894;42.544;1.516;2022-10-16T05:30:48;10.44;77.92
72772;SHT30;60894;42.544;1.516;2022-10-16T05:33:15;10.37;78.03
72772;SHT30;60894;42.544;1.516;2022-10-16T05:35:42;10.28;78.41
72772;SHT30;60894;42.544;1.516;2022-10-16T05:38:09;10.21;77.95
72772;SHT30;60894;42.544;1.516;2022-10-16T05:40:37;10.21;78.81
72772;SHT30;60894;42.544;1.516;2022-10-16T05:43:04;10.21;78.71
72772;SHT30;60894;42.544;1.516;2022-10-16T05:45:31;10.20;78.61
72772;SHT30;60894;42.544;1.516;2022-10-16T05:47:59;10.10;78.93
72772;SHT30;60894;42.544;1.516;2022-10-16T05:50:26;10.15;78.83
72772;SHT30;60894;42.544;1.516;2022-10-16T05:52:53;10.18;79.01
72772;SHT30;60894;42.544;1.516;2022-10-16T05:55:20;10.24;78.02
72772;SHT30;60894;42.544;1.516;2022-10-16T05:57:48;10.13;78.48
72772;SHT30;60894;42.544;1.516;2022-10-16T06:00:15;10.08;79.02
72772;SHT30;60894;42.544;1.516;2022-10-16T06:02:42;10.18;78.65
72772;SHT30;60894;42.544;1.516;2022-10-16T06:05:09;10.14;78.48
72772;SHT30;60894;42.544;1.516;2022-10-16T06:07:36;10.11;78.25
72772;SHT30;60894;42.544;1.516;2022-10-16T06:10:04;10.08;78.47
72772;SHT30;60894;42.544;1.516;2022-10-16T06:12:31;10.14;77.97
72772;SHT30;60894;42.544;1.516;2022-10-16T06:14:59;10.08;78.44
72772;SHT30;60894;42.544;1.516;2022-10-16T06:17:26;10.18;78.41
72772;SHT30;60894;42.544;1.516;2022-10-16T06:19:53;10.11;79.04
72772;SHT30;60894;42.544;1.516;2022-10-16T06:22:20;10.08;79.06
72772;SHT30;60894;42.544;1.516;2022-10-16T06:24:46;10.14;79.19
72772;SHT30;60894;42.544;1.516;2022-10-16T06:27:15;10.28;78.35
72772;SHT30;60894;42.544;1.516;2022-10-16T06:29:42;10.21;78.63
72772;SHT30;60894;42.544;1.516;2022-10-16T06:32:11;10.20;79.16
72772;SHT30;60894;42.544;1.516;2022-10-16T06:34:38;10.25;79.02
72772;SHT30;60894;42.544;1.516;2022-10-16T06:37:06;10.32;78.93
72772;SHT30;60894;42.544;1.516;2022-10-16T06:39:33;10.45;78.34
72772;SHT30;60894;42.544;1.516;2022-10-16T06:42:00;10.40;79.20
72772;SHT30;60894;42.544;1.516;2022-10-16T06:44:27;10.42;79.08
72772;SHT30;60894;42.544;1.516;2022-10-16T06:46:53;10.34;79.18
72772;SHT30;60894;42.544;1.516;2022-10-16T06:49:22;10.41;79.34
72772;SHT30;60894;42.544;1.516;2022-10-16T06:51:49;10.44;79.44
72772;SHT30;60894;42.544;1.516;2022-10-16T06:54:16;10.52;79.27
72772;SHT30;60894;42.544;1.516;2022-10-16T06:56:43;10.68;78.63
72772;SHT30;60894;42.544;1.516;2022-10-16T06:59:10;10.63;78.71
72772;SHT30;60894;42.544;1.516;2022-10-16T07:01:37;10.79;78.02
72772;SHT30;60894;42.544;1.516;2022-10-16T07:04:04;10.89;77.95
72772;SHT30;60894;42.544;1.516;2022-10-16T07:06:33;10.92;78.24
72772;SHT30;60894;42.544;1.516;2022-10-16T07:09:06;10.91;78.50
72772;SHT30;60894;42.544;1.516;2022-10-16T07:11:33;11.00;78.23
72772;SHT30;60894;42.544;1.516;2022-10-16T07:14:01;11.03;77.84
72772;SHT30;60894;42.544;1.516;2022-10-16T07:16:29;11.03;78.08
72772;SHT30;60894;42.544;1.516;2022-10-16T07:18:56;11.14;77.53
72772;SHT30;60894;42.544;1.516;2022-10-16T07:21:25;11.13;77.80
72772;SHT30;60894;42.544;1.516;2022-10-16T07:23:56;11.22;77.29
72772;SHT30;60894;42.544;1.516;2022-10-16T07:26:24;11.27;77.25
72772;SHT30;60894;42.544;1.516;2022-10-16T07:28:51;11.34;77.09
72772;SHT30;60894;42.544;1.516;2022-10-16T07:31:19;11.41;76.67
72772;SHT30;60894;42.544;1.516;2022-10-16T07:33:47;11.48;76.85
72772;SHT30;60894;42.544;1.516;2022-10-16T07:36:14;11.54;76.94
72772;SHT30;60894;42.544;1.516;2022-10-16T07:38:42;11.53;77.43
72772;SHT30;60894;42.544;1.516;2022-10-16T07:41:12;11.54;77.30
72772;SHT30;60894;42.544;1.516;2022-10-16T07:43:39;11.64;76.60
72772;SHT30;60894;42.544;1.516;2022-10-16T07:46:07;11.73;76.40
72772;SHT30;60894;42.544;1.516;2022-10-16T07:48:34;11.79;76.20
72772;SHT30;60894;42.544;1.516;2022-10-16T07:51:02;11.85;76.02
72772;SHT30;60894;42.544;1.516;2022-10-16T07:53:30;11.82;76.39
72772;SHT30;60894;42.544;1.516;2022-10-16T07:55:57;11.89;75.92
72772;SHT30;60894;42.544;1.516;2022-10-16T07:58:27;11.89;76.03
72772;SHT30;60894;42.544;1.516;2022-10-16T08:00:54;11.89;76.18
72772;SHT30;60894;42.544;1.516;2022-10-16T08:03:21;12.06;75.85
72772;SHT30;60894;42.544;1.516;2022-10-16T08:05:48;12.25;75.02
72772;SHT30;60894;42.544;1.516;2022-10-16T08:08:16;12.30;74.88
72772;SHT30;60894;42.544;1.516;2022-10-16T08:10:44;12.35;75.02
72772;SHT30;60894;42.544;1.516;2022-10-16T08:13:10;12.39;75.06
72772;SHT30;60894;42.544;1.516;2022-10-16T08:15:41;12.43;74.94
72772;SHT30;60894;42.544;1.516;2022-10-16T08:18:09;12.50;75.00
72772;SHT30;60894;42.544;1.516;2022-10-16T08:20:36;12.56;74.66
72772;SHT30;60894;42.544;1.516;2022-10-16T08:23:03;12.67;74.52
72772;SHT30;60894;42.544;1.516;2022-10-16T08:25:30;12.79;74.11
72772;SHT30;60894;42.544;1.516;2022-10-16T08:27:57;12.93;73.33
72772;SHT30;60894;42.544;1.516;2022-10-16T08:30:24;13.05;73.45
72772;SHT30;60894;42.544;1.516;2022-10-16T08:32:53;13.21;72.65
72772;SHT30;60894;42.544;1.516;2022-10-16T08:35:20;13.38;72.22
72772;SHT30;60894;42.544;1.516;2022-10-16T08:37:46;13.61;71.46
72772;SHT30;60894;42.544;1.516;2022-10-16T08:40:17;13.73;70.70
72772;SHT30;60894;42.544;1.516;2022-10-16T08:42:59;13.91;69.82
72772;SHT30;60894;42.544;1.516;2022-10-16T08:45:35;14.14;69.78
72772;SHT30;60894;42.544;1.516;2022-10-16T08:48:14;14.33;69.25
72772;SHT30;60894;42.544;1.516;2022-10-16T08:50:43;14.48;68.36
72772;SHT30;60894;42.544;1.516;2022-10-16T08:53:15;14.65;67.85
72772;SHT30;60894;42.544;1.516;2022-10-16T08:55:46;14.88;66.78
72772;SHT30;60894;42.544;1.516;2022-10-16T08:58:18;15.03;66.63
72772;SHT30;60894;42.544;1.516;2022-10-16T09:00:47;15.19;66.42
72772;SHT30;60894;42.544;1.516;2022-10-16T09:03:24;15.40;65.45
72772;SHT30;60894;42.544;1.516;2022-10-16T09:06:17;15.64;64.22
72772;SHT30;60894;42.544;1.516;2022-10-16T09:08:54;15.87;63.99
72772;SHT30;60894;42.544;1.516;2022-10-16T09:11:34;16.05;63.39
72772;SHT30;60894;42.544;1.516;2022-10-16T09:14:17;16.26;63.75
72772;SHT30;60894;42.544;1.516;2022-10-16T09:16:50;16.39;63.38
72772;SHT30;60894;42.544;1.516;2022-10-16T09:19:24;16.59;63.14
72772;SHT30;60894;42.544;1.516;2022-10-16T09:21:54;16.66;60.83
72772;SHT30;60894;42.544;1.516;2022-10-16T09:24:25;16.73;59.14
72772;SHT30;60894;42.544;1.516;2022-10-16T09:26:52;16.84;59.46
72772;SHT30;60894;42.544;1.516;2022-10-16T09:29:20;16.90;58.40
72772;SHT30;60894;42.544;1.516;2022-10-16T09:31:49;17.04;58.44
72772;SHT30;60894;42.544;1.516;2022-10-16T09:34:30;17.23;57.62
72772;SHT30;60894;42.544;1.516;2022-10-16T09:36:59;17.38;56.88
72772;SHT30;60894;42.544;1.516;2022-10-16T09:39:27;17.47;56.34
72772;SHT30;60894;42.544;1.516;2022-10-16T09:41:55;17.74;55.43
72772;SHT30;60894;42.544;1.516;2022-10-16T09:44:24;18.03;54.38
72772;SHT30;60894;42.544;1.516;2022-10-16T09:47:01;18.49;53.67
72772;SHT30;60894;42.544;1.516;2022-10-16T09:49:28;18.84;52.54
72772;SHT30;60894;42.544;1.516;2022-10-16T09:52:04;19.08;51.67
72772;SHT30;60894;42.544;1.516;2022-10-16T09:54:32;19.21;51.53
72772;SHT30;60894;42.544;1.516;2022-10-16T09:57:05;19.45;51.01
72772;SHT30;60894;42.544;1.516;2022-10-16T09:59:33;19.62;50.10
72772;SHT30;60894;42.544;1.516;2022-10-16T10:02:03;19.46;50.43
72772;SHT30;60894;42.544;1.516;2022-10-16T10:04:38;19.42;50.31
72772;SHT30;60894;42.544;1.516;2022-10-16T10:07:17;19.33;50.77
72772;SHT30;60894;42.544;1.516;2022-10-16T10:09:45;19.48;50.69
72772;SHT30;60894;42.544;1.516;2022-10-16T10:12:21;19.55;49.95
72772;SHT30;60894;42.544;1.516;2022-10-16T10:14:52;19.52;49.76
72772;SHT30;60894;42.544;1.516;2022-10-16T10:17:20;19.80;49.36
72772;SHT30;60894;42.544;1.516;2022-10-16T10:19:52;20.03;48.96
72772;SHT30;60894;42.544;1.516;2022-10-16T10:22:28;20.17;48.01
72772;SHT30;60894;42.544;1.516;2022-10-16T10:25:14;20.32;47.70
72772;SHT30;60894;42.544;1.516;2022-10-16T10:27:55;20.45;46.81
72772;SHT30;60894;42.544;1.516;2022-10-16T10:30:27;20.61;46.15
72772;SHT30;60894;42.544;1.516;2022-10-16T10:33:09;20.58;46.65
72772;SHT30;60894;42.544;1.516;2022-10-16T10:35:42;20.52;46.79
72772;SHT30;60894;42.544;1.516;2022-10-16T10:38:23;20.67;45.92
72772;SHT30;60894;42.544;1.516;2022-10-16T10:41:00;20.85;45.07
72772;SHT30;60894;42.544;1.516;2022-10-16T10:43:45;20.99;44.12
72772;SHT30;60894;42.544;1.516;2022-10-16T10:46:22;21.13;44.00
72772;SHT30;60894;42.544;1.516;2022-10-16T10:49:10;21.47;43.53
72772;SHT30;60894;42.544;1.516;2022-10-16T10:51:47;21.47;43.14
72772;SHT30;60894;42.544;1.516;2022-10-16T10:54:24;21.51;42.67
72772;SHT30;60894;42.544;1.516;2022-10-16T10:56:57;21.53;42.93
72772;SHT30;60894;42.544;1.516;2022-10-16T10:59:52;21.64;42.58
72772;SHT30;60894;42.544;1.516;2022-10-16T11:02:26;21.63;42.24
72772;SHT30;60894;42.544;1.516;2022-10-16T11:05:21;21.22;42.90
72772;SHT30;60894;42.544;1.516;2022-10-16T11:07:53;20.83;43.58
72772;SHT30;60894;42.544;1.516;2022-10-16T11:10:25;21.00;42.62
72772;SHT30;60894;42.544;1.516;2022-10-16T11:12:58;21.36;42.11
72772;SHT30;60894;42.544;1.516;2022-10-16T11:15:29;21.34;41.76
72772;SHT30;60894;42.544;1.516;2022-10-16T11:18:01;21.47;41.60
72772;SHT30;60894;42.544;1.516;2022-10-16T11:20:32;21.32;40.65
72772;SHT30;60894;42.544;1.516;2022-10-16T11:23:05;21.51;40.21
72772;SHT30;60894;42.544;1.516;2022-10-16T11:25:35;21.51;38.83
72772;SHT30;60894;42.544;1.516;2022-10-16T11:28:08;21.80;38.08
72772;SHT30;60894;42.544;1.516;2022-10-16T11:30:43;22.16;38.31
72772;SHT30;60894;42.544;1.516;2022-10-16T11:33:24;22.56;38.07
72772;SHT30;60894;42.544;1.516;2022-10-16T11:35:57;22.84;37.67
72772;SHT30;60894;42.544;1.516;2022-10-16T11:38:30;22.69;37.48
72772;SHT30;60894;42.544;1.516;2022-10-16T11:41:14;22.94;37.26
72772;SHT30;60894;42.544;1.516;2022-10-16T11:43:50;23.30;36.18
72772;SHT30;60894;42.544;1.516;2022-10-16T11:46:20;23.33;36.17
72772;SHT30;60894;42.544;1.516;2022-10-16T11:48:52;23.23;36.27
72772;SHT30;60894;42.544;1.516;2022-10-16T11:51:26;23.18;36.30
72772;SHT30;60894;42.544;1.516;2022-10-16T11:54:00;23.03;36.70
72772;SHT30;60894;42.544;1.516;2022-10-16T11:56:31;23.01;36.32
72772;SHT30;60894;42.544;1.516;2022-10-16T11:59:02;23.24;36.12
72772;SHT30;60894;42.544;1.516;2022-10-16T12:01:33;22.92;36.76
72772;SHT30;60894;42.544;1.516;2022-10-16T12:04:16;23.00;36.75
72772;SHT30;60894;42.544;1.516;2022-10-16T12:06:49;22.92;37.14
72772;SHT30;60894;42.544;1.516;2022-10-16T12:09:22;22.66;37.17
72772;SHT30;60894;42.544;1.516;2022-10-16T12:11:53;22.39;37.80
72772;SHT30;60894;42.544;1.516;2022-10-16T12:14:36;22.26;37.78
72772;SHT30;60894;42.544;1.516;2022-10-16T12:17:21;22.43;37.68
72772;SHT30;60894;42.544;1.516;2022-10-16T12:19:57;22.31;37.55
72772;SHT30;60894;42.544;1.516;2022-10-16T12:22:27;22.02;37.94
72772;SHT30;60894;42.544;1.516;2022-10-16T12:24:55;22.08;38.22
72772;SHT30;60894;42.544;1.516;2022-10-16T12:27:27;21.70;38.68
72772;SHT30;60894;42.544;1.516;2022-10-16T12:29:56;21.39;39.58
72772;SHT30;60894;42.544;1.516;2022-10-16T12:32:28;21.34;39.94
72772;SHT30;60894;42.544;1.516;2022-10-16T12:34:57;21.68;39.14
72772;SHT30;60894;42.544;1.516;2022-10-16T12:37:27;21.80;38.18
72772;SHT30;60894;42.544;1.516;2022-10-16T12:39:55;21.84;38.31
72772;SHT30;60894;42.544;1.516;2022-10-16T12:42:33;22.01;37.74
72772;SHT30;60894;42.544;1.516;2022-10-16T12:45:01;22.52;36.52
72772;SHT30;60894;42.544;1.516;2022-10-16T12:47:48;22.52;36.47
72772;SHT30;60894;42.544;1.516;2022-10-16T12:50:26;22.22;36.42
72772;SHT30;60894;42.544;1.516;2022-10-16T12:52:53;21.77;36.35
72772;SHT30;60894;42.544;1.516;2022-10-16T12:55:21;21.80;36.41
72772;SHT30;60894;42.544;1.516;2022-10-16T12:58:09;21.77;36.40
72772;SHT30;60894;42.544;1.516;2022-10-16T13:00:44;21.88;37.18
72772;SHT30;60894;42.544;1.516;2022-10-16T13:03:30;22.29;36.22
72772;SHT30;60894;42.544;1.516;2022-10-16T13:06:12;22.53;37.03
72772;SHT30;60894;42.544;1.516;2022-10-16T13:08:54;22.92;37.19
72772;SHT30;60894;42.544;1.516;2022-10-16T13:11:33;22.80;36.45
72772;SHT30;60894;42.544;1.516;2022-10-16T13:14:31;22.60;37.19
72772;SHT30;60894;42.544;1.516;2022-10-16T13:17:06;22.53;36.49
72772;SHT30;60894;42.544;1.516;2022-10-16T13:19:42;22.25;37.26
72772;SHT30;60894;42.544;1.516;2022-10-16T13:22:14;21.90;38.19
72772;SHT30;60894;42.544;1.516;2022-10-16T13:24:56;22.22;38.07
72772;SHT30;60894;42.544;1.516;2022-10-16T13:27:33;22.36;38.93
72772;SHT30;60894;42.544;1.516;2022-10-16T13:30:12;22.01;39.38
72772;SHT30;60894;42.544;1.516;2022-10-16T13:32:40;22.52;40.08
72772;SHT30;60894;42.544;1.516;2022-10-16T13:35:29;22.18;40.55
72772;SHT30;60894;42.544;1.516;2022-10-16T13:38:12;22.16;40.86
72772;SHT30;60894;42.544;1.516;2022-10-16T13:40:51;22.06;40.72
72772;SHT30;60894;42.544;1.516;2022-10-16T13:43:20;22.23;40.66
72772;SHT30;60894;42.544;1.516;2022-10-16T13:45:57;22.36;40.98
72772;SHT30;60894;42.544;1.516;2022-10-16T13:48:24;21.84;43.03
72772;SHT30;60894;42.544;1.516;2022-10-16T13:51:02;21.58;42.88
72772;SHT30;60894;42.544;1.516;2022-10-16T13:53:31;21.37;43.55
72772;SHT30;60894;42.544;1.516;2022-10-16T13:55:58;21.32;44.51
72772;SHT30;60894;42.544;1.516;2022-10-16T13:58:27;21.33;44.03
72772;SHT30;60894;42.544;1.516;2022-10-16T14:00:56;21.04;44.35
72772;SHT30;60894;42.544;1.516;2022-10-16T14:03:25;20.85;44.84
72772;SHT30;60894;42.544;1.516;2022-10-16T14:05:53;20.98;44.55
72772;SHT30;60894;42.544;1.516;2022-10-16T14:08:21;20.99;44.50
72772;SHT30;60894;42.544;1.516;2022-10-16T14:10:50;21.00;44.08
72772;SHT30;60894;42.544;1.516;2022-10-16T14:13:19;21.04;44.34
72772;SHT30;60894;42.544;1.516;2022-10-16T14:15:49;21.20;44.88
72772;SHT30;60894;42.544;1.516;2022-10-16T14:18:21;21.32;43.96
72772;SHT30;60894;42.544;1.516;2022-10-16T14:20:49;21.34;42.86
72772;SHT30;60894;42.544;1.516;2022-10-16T14:23:29;21.43;42.84
72772;SHT30;60894;42.544;1.516;2022-10-16T14:26:06;21.40;43.85
72772;SHT30;60894;42.544;1.516;2022-10-16T14:28:33;21.47;44.53
72772;SHT30;60894;42.544;1.516;2022-10-16T14:31:02;21.60;43.86
72772;SHT30;60894;42.544;1.516;2022-10-16T14:33:33;21.84;42.85
72772;SHT30;60894;42.544;1.516;2022-10-16T14:36:05;21.87;41.11
72772;SHT30;60894;42.544;1.516;2022-10-16T14:38:32;21.74;41.53
72772;SHT30;60894;42.544;1.516;2022-10-16T14:41:00;21.39;43.09
72772;SHT30;60894;42.544;1.516;2022-10-16T14:43:33;21.33;43.67
72772;SHT30;60894;42.544;1.516;2022-10-16T14:46:02;21.32;44.41
72772;SHT30;60894;42.544;1.516;2022-10-16T14:48:45;20.92;44.71
72772;SHT30;60894;42.544;1.516;2022-10-16T14:51:14;21.74;43.34
72772;SHT30;60894;42.544;1.516;2022-10-16T14:54:00;22.21;42.70
72772;SHT30;60894;42.544;1.516;2022-10-16T14:56:30;22.16;42.40
72772;SHT30;60894;42.544;1.516;2022-10-16T14:58:58;22.39;42.38
72772;SHT30;60894;42.544;1.516;2022-10-16T15:01:25;21.95;41.99
72772;SHT30;60894;42.544;1.516;2022-10-16T15:03:53;21.78;42.80
72772;SHT30;60894;42.544;1.516;2022-10-16T15:06:21;21.33;43.17
72772;SHT30;60894;42.544;1.516;2022-10-16T15:08:48;21.37;43.81
72772;SHT30;60894;42.544;1.516;2022-10-16T15:11:17;21.12;44.25
72772;SHT30;60894;42.544;1.516;2022-10-16T15:13:44;20.79;44.74
72772;SHT30;60894;42.544;1.516;2022-10-16T15:16:13;20.89;44.82
72772;SHT30;60894;42.544;1.516;2022-10-16T15:18:40;20.78;45.71
72772;SHT30;60894;42.544;1.516;2022-10-16T15:21:11;20.73;45.52
72772;SHT30;60894;42.544;1.516;2022-10-16T15:23:39;20.72;45.48
72772;SHT30;60894;42.544;1.516;2022-10-16T15:26:07;20.51;45.89
72772;SHT30;60894;42.544;1.516;2022-10-16T15:28:36;20.40;46.57
72772;SHT30;60894;42.544;1.516;2022-10-16T15:31:15;20.22;46.69
72772;SHT30;60894;42.544;1.516;2022-10-16T15:33:42;20.13;47.29
72772;SHT30;60894;42.544;1.516;2022-10-16T15:36:10;20.07;47.22
72772;SHT30;60894;42.544;1.516;2022-10-16T15:38:37;20.11;46.98
72772;SHT30;60894;42.544;1.516;2022-10-16T15:41:04;20.09;47.27
72772;SHT30;60894;42.544;1.516;2022-10-16T15:43:31;20.13;47.94
72772;SHT30;60894;42.544;1.516;2022-10-16T15:46:00;19.84;48.25
72772;SHT30;60894;42.544;1.516;2022-10-16T15:48:28;19.74;49.49
72772;SHT30;60894;42.544;1.516;2022-10-16T15:50:55;19.91;48.54